Queen Of Capilano — VY9513 — position and weather

sailwx.info

Track history (hours):
 
Tides and Currents Weather Stations Pressure Air Temp Water Temp Dewpoint Dewpoint Depression Visibility Wind Speed Wind Dir Waves Ship Positions

Queen Of Capilano

Last reported at 2018-Apr-24 22:26 UTC. Time now 2018-Apr-24 22:54 UTC.
Position N 49°23' W 123°16'.

Length 96 m; draft 4 m.

Type: Passenger vessel. MMSI: 316001247.

Date/timePositionNaut miles runAvg speedWind from/ knotsBaromVisibWave heightAir tempDewpointWater temp
2018-Apr-24 22:26N 49°23' W 123°16'2 4.9
2018-Apr-24 22:00N 49°23' W 123°19'1 2.0
2018-Apr-24 21:28N 49°23' W 123°18'1 1.0
2018-Apr-24 20:26N 49°23' W 123°16'2 5.5
2018-Apr-24 20:00N 49°23' W 123°20'2 4.4
2018-Apr-24 19:29N 49°23' W 123°16'2 4.7
2018-Apr-24 19:00N 49°23' W 123°20'2 3.3
2018-Apr-24 18:30N 49°23' W 123°17'0 0.3
2018-Apr-24 18:00N 49°23' W 123°18'1 2.6
2018-Apr-24 17:31N 49°23' W 123°20'2 4.1
2018-Apr-24 17:00N 49°23' W 123°16'2 4.7
2018-Apr-24 16:31N 49°23' W 123°20'2 4.6
2018-Apr-24 16:01N 49°23' W 123°16'2 4.2
2018-Apr-24 15:28N 49°23' W 123°20'2 3.6
2018-Apr-24 14:49N 49°23' W 123°16'2 7.6
2018-Apr-24 14:30N 49°23' W 123°20'1 2.9
2018-Apr-24 14:00N 49°23' W 123°18'0 0.2
2018-Apr-24 13:30N 49°23' W 123°18'1 1.0
2018-Apr-24 12:58N 49°23' W 123°17'1 1.6
2018-Apr-24 12:30N 49°23' W 123°18'0 0.5
2018-Apr-24 12:00N 49°23' W 123°19'2 0.3
2018-Apr-24 05:57N 49°23' W 123°16'2 5.3
2018-Apr-24 05:31N 49°23' W 123°20'2 3.3
2018-Apr-24 04:48N 49°23' W 123°16'2 8.0
2018-Apr-24 04:30N 49°23' W 123°20'2 3.1
2018-Apr-24 03:47N 49°23' W 123°16'2 8.3
2018-Apr-24 03:30N 49°23' W 123°20'2 2.8
2018-Apr-24 02:41N 49°23' W 123°16'1 8.7
2018-Apr-24 02:31N 49°23' W 123°19'0 0.4
2018-Apr-24 02:00N 49°23' W 123°18'1 1.1
2018-Apr-24 01:30N 49°23' W 123°18'1 2.1
2018-Apr-24 01:00N 49°23' W 123°19'2 3.5
2018-Apr-24 00:28N 49°23' W 123°16'2 5.0
2018-Apr-24 00:01N 49°23' W 123°20'2 4.6
2018-Apr-23 23:30N 49°23' W 123°16'2 4.7
2018-Apr-23 23:01N 49°23' W 123°20'2 4.0
2018-Apr-23 22:26N 49°23' W 123°16'2 4.6
2018-Apr-23 22:00N 49°23' W 123°19'1 1.3
2018-Apr-23 21:30N 49°23' W 123°18'1 2.4
2018-Apr-23 20:55N 49°23' W 123°16'0 0.3
2018-Apr-23 20:26N 49°23' W 123°16'2 5.4
2018-Apr-23 20:01N 49°23' W 123°20'2 3.6
2018-Apr-23 19:21N 49°23' W 123°16'2 6.9
2018-Apr-23 19:00N 49°23' W 123°20'2 3.5
2018-Apr-23 18:30N 49°23' W 123°17'0 0.7
2018-Apr-23 18:01N 49°23' W 123°18'1 2.5
2018-Apr-23 17:30N 49°23' W 123°20'2 4.5
2018-Apr-23 17:00N 49°23' W 123°16'2 4.7
2018-Apr-23 16:30N 49°23' W 123°20'2 4.2
2018-Apr-23 15:58N 49°23' W 123°16'2 4.8
2018-Apr-23 15:29N 49°23' W 123°20'2 4.6
2018-Apr-23 14:58N 49°23' W 123°16'2 5.0
2018-Apr-23 14:30N 49°23' W 123°20'1 2.3
2018-Apr-23 14:00N 49°23' W 123°18'0 0.7
2018-Apr-23 13:31N 49°23' W 123°18'1 1.2
2018-Apr-23 13:00N 49°23' W 123°19'1 1.4
2018-Apr-23 12:30N 49°23' W 123°17'1 2.6
2018-Apr-23 12:00N 49°23' W 123°19'2 0.3
2018-Apr-23 06:02N 49°23' W 123°16'0 0.6
2018-Apr-23 05:54N 49°23' W 123°16'2 6.0
2018-Apr-23 05:30N 49°23' W 123°20'2 4.1
2018-Apr-23 04:55N 49°23' W 123°16'2 5.6
2018-Apr-23 04:30N 49°23' W 123°20'0 0.1
2018-Apr-23 03:59N 49°23' W 123°20'0 0.0
2018-Apr-23 03:30N 49°23' W 123°20'2 2.9
2018-Apr-23 02:40N 49°23' W 123°16'2 9.3
2018-Apr-23 02:30N 49°23' W 123°19'0 0.4
2018-Apr-23 02:00N 49°23' W 123°18'1 1.8
2018-Apr-23 01:30N 49°23' W 123°17'2 3.2
2018-Apr-23 01:00N 49°23' W 123°20'2 4.1
2018-Apr-23 00:30N 49°23' W 123°16'2 4.2
2018-Apr-22 23:57N 49°23' W 123°20'2 5.2
2018-Apr-22 23:30N 49°23' W 123°16'2 4.6
2018-Apr-22 23:00N 49°23' W 123°20'2 4.0
2018-Apr-22 22:25N 49°23' W 123°16'2 4.6
2018-Apr-22 22:00N 49°23' W 123°19'0 1.0
2018-Apr-22 21:30N 49°23' W 123°19'2 1.9
2018-Apr-22 20:43N 49°23' W 123°16'0 0.2
2018-Apr-22 20:30N 49°23' W 123°16'2 4.2
2018-Apr-22 19:57N 49°23' W 123°20'2 3.6
2018-Apr-22 19:17N 49°23' W 123°16'2 8.2
2018-Apr-22 19:00N 49°23' W 123°20'2 3.3
2018-Apr-22 18:30N 49°23' W 123°17'0 0.5
2018-Apr-22 18:00N 49°23' W 123°18'1 2.7
2018-Apr-22 17:30N 49°23' W 123°20'2 4.3
2018-Apr-22 17:00N 49°23' W 123°16'2 4.7
2018-Apr-22 16:30N 49°23' W 123°20'2 4.6
2018-Apr-22 16:00N 49°23' W 123°16'2 4.7
2018-Apr-22 15:30N 49°23' W 123°20'2 4.5
2018-Apr-22 15:00N 49°23' W 123°16'0 0.2
2018-Apr-22 14:30N 49°23' W 123°16'0 0.0
2018-Apr-22 14:00N 49°23' W 123°16'1 1.7
2018-Apr-22 13:30N 49°23' W 123°17'1 1.3
2018-Apr-22 13:00N 49°23' W 123°18'2 0.2
2018-Apr-22 05:53N 49°23' W 123°16'2 6.2
2018-Apr-22 05:30N 49°23' W 123°20'2 4.6
2018-Apr-22 05:00N 49°23' W 123°16'2 4.7
2018-Apr-22 04:30N 49°23' W 123°20'2 3.1
2018-Apr-22 03:45N 49°23' W 123°16'2 9.2
2018-Apr-22 03:30N 49°23' W 123°20'0 0.2
2018-Apr-22 03:00N 49°23' W 123°20'0 0.0
2018-Apr-22 02:30N 49°23' W 123°20'2 3.0
2018-Apr-22 02:00N 49°23' W 123°18'0 0.9
2018-Apr-22 01:31N 49°23' W 123°17'2 3.5
2018-Apr-22 01:00N 49°23' W 123°20'2 4.0
2018-Apr-22 00:27N 49°23' W 123°16'2 4.9
2018-Apr-21 23:58N 49°23' W 123°20'2 4.8
2018-Apr-21 23:29N 49°23' W 123°16'2 4.8
2018-Apr-21 23:00N 49°23' W 123°20'2 4.2
2018-Apr-21 22:27N 49°23' W 123°16'2 4.1
2018-Apr-21 22:00N 49°23' W 123°19'0 0.7
2018-Apr-21 21:30N 49°23' W 123°19'2 1.5
2018-Apr-21 20:26N 49°23' W 123°16'2 5.5
2018-Apr-21 20:00N 49°23' W 123°20'2 3.2
2018-Apr-21 19:16N 49°23' W 123°16'2 8.8
2018-Apr-21 19:00N 49°23' W 123°20'2 3.5
2018-Apr-21 18:30N 49°23' W 123°17'0 0.6
2018-Apr-21 18:00N 49°23' W 123°18'1 2.7
2018-Apr-21 17:30N 49°23' W 123°20'2 3.9
2018-Apr-21 16:58N 49°23' W 123°16'2 4.8
2018-Apr-21 16:30N 49°23' W 123°20'2 4.2
2018-Apr-21 15:57N 49°23' W 123°16'2 5.1
2018-Apr-21 15:30N 49°23' W 123°20'2 4.7
2018-Apr-21 15:00N 49°23' W 123°16'2 4.5
2018-Apr-21 14:31N 49°23' W 123°20'1 2.4
2018-Apr-21 14:00N 49°23' W 123°18'0 0.4
2018-Apr-21 13:30N 49°23' W 123°18'0 0.3
2018-Apr-21 13:00N 49°23' W 123°18'1 2.0
2018-Apr-21 12:25N 49°23' W 123°16'0 0.0
2018-Apr-21 11:56N 49°23' W 123°16'0 0.0
2018-Apr-21 11:30N 49°23' W 123°16'0 0.0
2018-Apr-21 06:23N 49°23' W 123°16'0 0.5
2018-Apr-21 06:00N 49°23' W 123°16'2 4.7
2018-Apr-21 05:30N 49°23' W 123°20'2 4.4
2018-Apr-21 04:58N 49°23' W 123°16'2 4.5
2018-Apr-21 04:30N 49°23' W 123°20'2 3.3
2018-Apr-21 04:00N 49°23' W 123°17'1 2.9
2018-Apr-21 03:30N 49°23' W 123°19'2 3.5
2018-Apr-21 02:58N 49°23' W 123°16'2 5.0
2018-Apr-21 02:30N 49°23' W 123°20'2 4.6
2018-Apr-21 02:00N 49°23' W 123°16'1 1.5
2018-Apr-21 01:30N 49°23' W 123°17'1 2.0
2018-Apr-21 01:00N 49°23' W 123°19'2 3.2
2018-Apr-21 00:30N 49°23' W 123°16'2 4.5
2018-Apr-20 23:59N 49°23' W 123°20'2 4.6
2018-Apr-20 23:29N 49°23' W 123°16'2 4.8
2018-Apr-20 23:00N 49°23' W 123°20'2 3.6
2018-Apr-20 22:21N 49°23' W 123°16'2 6.1
2018-Apr-20 22:00N 49°23' W 123°20'2 2.9
2018-Apr-20 21:29N 49°23' W 123°17'1 1.4
2018-Apr-20 20:53N 49°23' W 123°16'0 0.6
2018-Apr-20 20:27N 49°23' W 123°16'2 5.3
2018-Apr-20 20:00N 49°23' W 123°20'2 2.9
2018-Apr-20 19:15N 49°23' W 123°16'2 9.4
2018-Apr-20 19:00N 49°23' W 123°20'2 4.3
2018-Apr-20 18:30N 49°23' W 123°17'1 1.3
2018-Apr-20 18:00N 49°23' W 123°18'1 2.6
2018-Apr-20 17:30N 49°23' W 123°20'2 4.2
2018-Apr-20 16:59N 49°23' W 123°16'2 4.8
2018-Apr-20 16:30N 49°23' W 123°20'2 4.6
2018-Apr-20 16:00N 49°23' W 123°16'2 4.0
2018-Apr-20 15:26N 49°23' W 123°20'2 5.0
2018-Apr-20 14:58N 49°23' W 123°16'2 5.0
2018-Apr-20 14:30N 49°23' W 123°20'1 2.4
2018-Apr-20 14:00N 49°23' W 123°18'0 0.6
2018-Apr-20 13:30N 49°23' W 123°18'1 1.0
2018-Apr-20 13:00N 49°23' W 123°18'0 0.9
2018-Apr-20 12:30N 49°23' W 123°18'1 1.7
2018-Apr-20 12:00N 49°23' W 123°19'2 0.3
2018-Apr-20 05:47N 49°23' W 123°16'2 8.5
2018-Apr-20 05:30N 49°23' W 123°20'2 4.7
2018-Apr-20 05:00N 49°23' W 123°16'2 4.7
2018-Apr-20 04:30N 49°23' W 123°20'2 4.6
2018-Apr-20 04:00N 49°23' W 123°16'2 4.5
2018-Apr-20 03:30N 49°23' W 123°20'2 4.2
2018-Apr-20 02:59N 49°23' W 123°16'2 3.8
2018-Apr-20 02:30N 49°23' W 123°19'1 2.7
2018-Apr-20 02:00N 49°23' W 123°17'1 1.8
2018-Apr-20 01:30N 49°23' W 123°18'1 1.1
2018-Apr-20 01:00N 49°23' W 123°18'0 0.4
2018-Apr-20 00:29N 49°23' W 123°17'2 3.2
2018-Apr-20 00:00N 49°23' W 123°20'2 4.3
2018-Apr-19 23:30N 49°23' W 123°16'2 4.7
2018-Apr-19 23:00N 49°23' W 123°20'2 4.0
2018-Apr-19 22:26N 49°23' W 123°16'2 5.2
2018-Apr-19 22:00N 49°23' W 123°20'1 2.8
2018-Apr-19 21:30N 49°23' W 123°18'1 1.8
2018-Apr-19 20:54N 49°23' W 123°16'0 0.4
2018-Apr-19 20:27N 49°23' W 123°16'2 5.3
2018-Apr-19 20:00N 49°23' W 123°20'2 3.5
2018-Apr-19 19:20N 49°23' W 123°16'2 6.4
2018-Apr-19 18:58N 49°23' W 123°20'2 4.1
2018-Apr-19 18:24N 49°23' W 123°16'2 5.7
2018-Apr-19 18:00N 49°23' W 123°20'2 3.5
2018-Apr-19 17:30N 49°23' W 123°17'0 0.6
2018-Apr-19 17:00N 49°23' W 123°18'1 1.5
2018-Apr-19 16:27N 49°23' W 123°19'2 3.7
2018-Apr-19 16:00N 49°23' W 123°16'2 4.7
2018-Apr-19 15:30N 49°23' W 123°20'2 4.4
2018-Apr-19 14:59N 49°23' W 123°16'2 4.9
2018-Apr-19 14:30N 49°23' W 123°20'2 3.1
2018-Apr-19 14:00N 49°23' W 123°18'0 0.5
2018-Apr-19 13:30N 49°23' W 123°18'0 0.6
2018-Apr-19 13:00N 49°23' W 123°18'0 1.0
2018-Apr-19 12:30N 49°23' W 123°18'1 2.5
2018-Apr-19 12:00N 49°23' W 123°20'2 0.4
2018-Apr-19 06:20N 49°23' W 123°16'0 0.2
2018-Apr-19 05:46N 49°23' W 123°16'2 8.3
2018-Apr-19 05:30N 49°23' W 123°20'2 3.1
2018-Apr-19 04:46N 49°23' W 123°16'2 8.4
2018-Apr-19 04:29N 49°23' W 123°20'2 3.1
2018-Apr-19 03:45N 49°23' W 123°16'2 8.9
2018-Apr-19 03:29N 49°23' W 123°20'2 4.5
2018-Apr-19 02:58N 49°23' W 123°16'2 3.8
2018-Apr-19 02:30N 49°23' W 123°19'2 3.0
2018-Apr-19 02:00N 49°23' W 123°17'2 3.0
2018-Apr-19 01:30N 49°23' W 123°19'1 2.1
2018-Apr-19 01:00N 49°23' W 123°17'0 0.1
2018-Apr-19 00:30N 49°23' W 123°17'1 3.1
2018-Apr-19 00:00N 49°23' W 123°20'2 4.3
2018-Apr-18 23:30N 49°23' W 123°16'2 4.4
2018-Apr-18 22:58N 49°23' W 123°20'2 5.0
2018-Apr-18 22:30N 49°23' W 123°16'2 4.5
2018-Apr-18 22:00N 49°23' W 123°20'1 2.4
2018-Apr-18 21:29N 49°23' W 123°18'1 1.2
2018-Apr-18 20:30N 49°23' W 123°16'2 4.7
2018-Apr-18 20:00N 49°23' W 123°20'2 3.1
2018-Apr-18 19:15N 49°23' W 123°16'2 9.0
2018-Apr-18 19:00N 49°23' W 123°20'2 3.8
2018-Apr-18 18:29N 49°23' W 123°17'1 2.0
2018-Apr-18 18:00N 49°23' W 123°18'0 0.5
2018-Apr-18 17:30N 49°23' W 123°19'1 2.8
2018-Apr-18 17:00N 49°23' W 123°16'2 4.5
2018-Apr-18 16:30N 49°23' W 123°20'2 4.5
2018-Apr-18 16:00N 49°23' W 123°16'2 4.6
2018-Apr-18 15:30N 49°23' W 123°20'2 3.5
2018-Apr-18 14:50N 49°23' W 123°16'2 7.0
2018-Apr-18 14:30N 49°23' W 123°20'2 3.1
2018-Apr-18 14:00N 49°23' W 123°18'0 0.3
2018-Apr-18 13:30N 49°23' W 123°18'1 1.3
2018-Apr-18 13:00N 49°23' W 123°19'1 1.6
2018-Apr-18 12:30N 49°23' W 123°17'2 3.1
2018-Apr-18 12:00N 49°23' W 123°20'2 0.4
2018-Apr-18 05:45N 49°23' W 123°16'2 8.8
2018-Apr-18 05:30N 49°23' W 123°20'2 3.0
2018-Apr-18 04:46N 49°23' W 123°16'2 8.9
2018-Apr-18 04:30N 49°23' W 123°20'2 4.6
2018-Apr-18 04:00N 49°23' W 123°16'2 4.5
2018-Apr-18 03:30N 49°23' W 123°20'2 4.4
2018-Apr-18 03:00N 49°23' W 123°16'2 3.2
2018-Apr-18 02:30N 49°23' W 123°19'0 0.4
2018-Apr-18 02:00N 49°23' W 123°19'1 2.8
2018-Apr-18 01:30N 49°23' W 123°16'2 4.4
2018-Apr-18 01:01N 49°23' W 123°20'2 3.7
2018-Apr-18 00:25N 49°23' W 123°16'2 5.5
2018-Apr-18 00:00N 49°23' W 123°20'2 4.7
2018-Apr-17 23:31N 49°23' W 123°16'2 4.6
2018-Apr-17 23:00N 49°23' W 123°20'2 4.5
2018-Apr-17 22:29N 49°23' W 123°16'2 3.9
2018-Apr-17 22:00N 49°23' W 123°19'1 1.1
2018-Apr-17 21:31N 49°23' W 123°18'1 2.7
2018-Apr-17 20:57N 49°23' W 123°16'0 0.4
2018-Apr-17 20:28N 49°23' W 123°16'2 5.2
2018-Apr-17 20:00N 49°23' W 123°20'2 3.3
2018-Apr-17 19:17N 49°23' W 123°16'2 8.1
2018-Apr-17 19:00N 49°23' W 123°20'2 4.5
2018-Apr-17 18:30N 49°23' W 123°16'1 1.5
2018-Apr-17 18:01N 49°23' W 123°17'1 2.9
2018-Apr-17 17:30N 49°23' W 123°20'2 4.2
2018-Apr-17 17:00N 49°23' W 123°16'2 4.7
2018-Apr-17 16:30N 49°23' W 123°20'2 4.4
2018-Apr-17 15:59N 49°23' W 123°16'2 4.9
2018-Apr-17 15:31N 49°23' W 123°20'2 4.5
2018-Apr-17 15:00N 49°23' W 123°16'2 4.7
2018-Apr-17 14:30N 49°23' W 123°20'1 2.8
2018-Apr-17 14:00N 49°23' W 123°18'0 0.3
2018-Apr-17 13:30N 49°23' W 123°18'0 1.0
2018-Apr-17 13:00N 49°23' W 123°19'1 1.6
2018-Apr-17 12:31N 49°23' W 123°17'2 3.2
2018-Apr-17 12:01N 49°23' W 123°20'2 0.4
2018-Apr-17 06:08N 49°23' W 123°16'0 0.4
2018-Apr-17 05:47N 49°23' W 123°16'2 8.5
2018-Apr-17 05:30N 49°23' W 123°20'2 3.8
2018-Apr-17 04:55N 49°23' W 123°16'2 5.6
2018-Apr-17 04:30N 49°23' W 123°20'2 4.6
2018-Apr-17 04:00N 49°23' W 123°16'2 4.5
2018-Apr-17 03:30N 49°23' W 123°20'2 4.5
2018-Apr-17 03:01N 49°23' W 123°16'1 2.9
2018-Apr-17 02:30N 49°23' W 123°19'0 0.3
2018-Apr-17 02:00N 49°23' W 123°19'2 3.2
2018-Apr-17 01:30N 49°23' W 123°16'2 4.5
2018-Apr-17 01:00N 49°23' W 123°20'2 4.3
2018-Apr-17 00:29N 49°23' W 123°16'2 4.8
2018-Apr-17 00:00N 49°23' W 123°20'2 4.0
2018-Apr-16 23:25N 49°23' W 123°16'2 5.5
2018-Apr-16 23:00N 49°23' W 123°20'2 3.7
2018-Apr-16 22:22N 49°23' W 123°16'2 4.4
2018-Apr-16 22:00N 49°23' W 123°19'0 0.3
2018-Apr-16 21:31N 49°23' W 123°19'2 3.3
2018-Apr-16 21:00N 49°23' W 123°16'0 0.3
2018-Apr-16 20:27N 49°23' W 123°16'2 5.0
2018-Apr-16 19:59N 49°23' W 123°20'2 3.0
2018-Apr-16 19:14N 49°23' W 123°16'2 9.2
2018-Apr-16 19:00N 49°23' W 123°20'2 3.5
2018-Apr-16 18:30N 49°23' W 123°17'0 0.8
2018-Apr-16 17:59N 49°23' W 123°18'1 2.1
2018-Apr-16 17:29N 49°23' W 123°19'2 3.7
2018-Apr-16 16:57N 49°23' W 123°16'2 5.2
2018-Apr-16 16:30N 49°23' W 123°20'2 4.5
2018-Apr-16 16:00N 49°23' W 123°16'2 4.7
2018-Apr-16 15:30N 49°23' W 123°20'2 4.2
2018-Apr-16 14:57N 49°23' W 123°16'2 5.2
2018-Apr-16 14:30N 49°23' W 123°20'1 2.6
2018-Apr-16 14:00N 49°23' W 123°18'0 0.2
2018-Apr-16 13:30N 49°23' W 123°18'1 1.1
2018-Apr-16 13:00N 49°23' W 123°19'1 1.6
2018-Apr-16 12:30N 49°23' W 123°17'1 3.0
2018-Apr-16 12:00N 49°23' W 123°20'2 0.4
2018-Apr-16 05:47N 49°23' W 123°16'2 8.5
2018-Apr-16 05:30N 49°23' W 123°20'2 4.7
2018-Apr-16 05:00N 49°23' W 123°16'2 4.5
2018-Apr-16 04:30N 49°23' W 123°20'0 0.1
2018-Apr-16 04:00N 49°23' W 123°20'0 0.0
2018-Apr-16 03:31N 49°23' W 123°20'2 4.6
2018-Apr-16 03:00N 49°23' W 123°16'2 3.3
2018-Apr-16 02:30N 49°23' W 123°19'0 0.2
2018-Apr-16 02:01N 49°23' W 123°19'2 3.2
2018-Apr-16 01:30N 49°23' W 123°16'2 4.5
2018-Apr-16 01:00N 49°23' W 123°20'2 3.9
2018-Apr-16 00:26N 49°23' W 123°16'2 5.4
2018-Apr-16 00:00N 49°23' W 123°20'2 4.2
2018-Apr-15 23:27N 49°23' W 123°16'2 5.2
2018-Apr-15 23:01N 49°23' W 123°20'2 4.2
2018-Apr-15 22:28N 49°23' W 123°16'2 3.3
2018-Apr-15 22:00N 49°23' W 123°19'0 0.3
2018-Apr-15 21:30N 49°23' W 123°19'2 3.0
2018-Apr-15 20:56N 49°23' W 123°16'0 0.4
2018-Apr-15 20:28N 49°23' W 123°16'2 5.1
2018-Apr-15 20:01N 49°23' W 123°20'2 3.2
2018-Apr-15 19:16N 49°23' W 123°16'2 8.6
2018-Apr-15 19:00N 49°23' W 123°20'2 3.1
2018-Apr-15 18:30N 49°23' W 123°17'0 0.9
2018-Apr-15 17:59N 49°23' W 123°18'1 2.2
2018-Apr-15 17:31N 49°23' W 123°20'2 4.4
2018-Apr-15 17:01N 49°23' W 123°16'2 4.6
2018-Apr-15 16:30N 49°23' W 123°20'2 4.4
2018-Apr-15 15:59N 49°23' W 123°16'2 4.5
2018-Apr-15 15:28N 49°23' W 123°20'2 5.0
2018-Apr-15 15:00N 49°23' W 123°16'0 0.2
2018-Apr-15 14:25N 49°23' W 123°16'0 0.0
2018-Apr-15 13:59N 49°23' W 123°16'1 2.0
2018-Apr-15 13:30N 49°23' W 123°18'0 0.8
2018-Apr-15 13:00N 49°23' W 123°18'1 0.2
2018-Apr-15 05:47N 49°23' W 123°16'2 8.5
2018-Apr-15 05:31N 49°23' W 123°20'2 4.2
2018-Apr-15 04:57N 49°23' W 123°16'2 5.1
2018-Apr-15 04:30N 49°23' W 123°20'2 3.1
2018-Apr-15 03:46N 49°23' W 123°16'2 8.7
2018-Apr-15 03:30N 49°23' W 123°20'0 0.0
2018-Apr-15 02:59N 49°23' W 123°20'0 0.0
2018-Apr-15 02:30N 49°23' W 123°20'1 2.0
2018-Apr-15 02:00N 49°23' W 123°18'1 2.7
2018-Apr-15 01:31N 49°23' W 123°16'2 3.9
2018-Apr-15 01:00N 49°23' W 123°19'2 3.6
2018-Apr-15 00:26N 49°23' W 123°16'2 5.6
2018-Apr-15 00:00N 49°23' W 123°20'2 4.4
2018-Apr-14 23:29N 49°23' W 123°16'2 4.8
2018-Apr-14 23:00N 49°23' W 123°20'2 4.4
2018-Apr-14 22:29N 49°23' W 123°16'  
Track history (hours):
 
Tides and Currents Weather Stations Pressure Air Temp Water Temp Dewpoint Dewpoint Depression Visibility Wind Speed Wind Dir Waves Ship Positions

Queen Of Capilano

Last reported at 2018-Apr-24 22:26 UTC. Time now 2018-Apr-24 22:54 UTC.
Position N 49°23' W 123°16'.

Length 96 m; draft 4 m.

Type: Passenger vessel. MMSI: 316001247.

Date/timePositionNaut miles runAvg speedWind from/ knotsBaromVisibWave heightAir tempDewpointWater temp
2018-Apr-24 22:26N 49°23' W 123°16'2 4.9
2018-Apr-24 22:00N 49°23' W 123°19'1 2.0
2018-Apr-24 21:28N 49°23' W 123°18'1 1.0
2018-Apr-24 20:26N 49°23' W 123°16'2 5.5
2018-Apr-24 20:00N 49°23' W 123°20'2 4.4
2018-Apr-24 19:29N 49°23' W 123°16'2 4.7
2018-Apr-24 19:00N 49°23' W 123°20'2 3.3
2018-Apr-24 18:30N 49°23' W 123°17'0 0.3
2018-Apr-24 18:00N 49°23' W 123°18'1 2.6
2018-Apr-24 17:31N 49°23' W 123°20'2 4.1
2018-Apr-24 17:00N 49°23' W 123°16'2 4.7
2018-Apr-24 16:31N 49°23' W 123°20'2 4.6
2018-Apr-24 16:01N 49°23' W 123°16'2 4.2
2018-Apr-24 15:28N 49°23' W 123°20'2 3.6
2018-Apr-24 14:49N 49°23' W 123°16'2 7.6
2018-Apr-24 14:30N 49°23' W 123°20'1 2.9
2018-Apr-24 14:00N 49°23' W 123°18'0 0.2
2018-Apr-24 13:30N 49°23' W 123°18'1 1.0
2018-Apr-24 12:58N 49°23' W 123°17'1 1.6
2018-Apr-24 12:30N 49°23' W 123°18'0 0.5
2018-Apr-24 12:00N 49°23' W 123°19'2 0.3
2018-Apr-24 05:57N 49°23' W 123°16'2 5.3
2018-Apr-24 05:31N 49°23' W 123°20'2 3.3
2018-Apr-24 04:48N 49°23' W 123°16'2 8.0
2018-Apr-24 04:30N 49°23' W 123°20'2 3.1
2018-Apr-24 03:47N 49°23' W 123°16'2 8.3
2018-Apr-24 03:30N 49°23' W 123°20'2 2.8
2018-Apr-24 02:41N 49°23' W 123°16'1 8.7
2018-Apr-24 02:31N 49°23' W 123°19'0 0.4
2018-Apr-24 02:00N 49°23' W 123°18'1 1.1
2018-Apr-24 01:30N 49°23' W 123°18'1 2.1
2018-Apr-24 01:00N 49°23' W 123°19'2 3.5
2018-Apr-24 00:28N 49°23' W 123°16'2 5.0
2018-Apr-24 00:01N 49°23' W 123°20'2 4.6
2018-Apr-23 23:30N 49°23' W 123°16'2 4.7
2018-Apr-23 23:01N 49°23' W 123°20'2 4.0
2018-Apr-23 22:26N 49°23' W 123°16'2 4.6
2018-Apr-23 22:00N 49°23' W 123°19'1 1.3
2018-Apr-23 21:30N 49°23' W 123°18'1 2.4
2018-Apr-23 20:55N 49°23' W 123°16'0 0.3
2018-Apr-23 20:26N 49°23' W 123°16'2 5.4
2018-Apr-23 20:01N 49°23' W 123°20'2 3.6
2018-Apr-23 19:21N 49°23' W 123°16'2 6.9
2018-Apr-23 19:00N 49°23' W 123°20'2 3.5
2018-Apr-23 18:30N 49°23' W 123°17'0 0.7
2018-Apr-23 18:01N 49°23' W 123°18'1 2.5
2018-Apr-23 17:30N 49°23' W 123°20'2 4.5
2018-Apr-23 17:00N 49°23' W 123°16'2 4.7
2018-Apr-23 16:30N 49°23' W 123°20'2 4.2
2018-Apr-23 15:58N 49°23' W 123°16'2 4.8
2018-Apr-23 15:29N 49°23' W 123°20'2 4.6
2018-Apr-23 14:58N 49°23' W 123°16'2 5.0
2018-Apr-23 14:30N 49°23' W 123°20'1 2.3
2018-Apr-23 14:00N 49°23' W 123°18'0 0.7
2018-Apr-23 13:31N 49°23' W 123°18'1 1.2
2018-Apr-23 13:00N 49°23' W 123°19'1 1.4
2018-Apr-23 12:30N 49°23' W 123°17'1 2.6
2018-Apr-23 12:00N 49°23' W 123°19'2 0.3
2018-Apr-23 06:02N 49°23' W 123°16'0 0.6
2018-Apr-23 05:54N 49°23' W 123°16'2 6.0
2018-Apr-23 05:30N 49°23' W 123°20'2 4.1
2018-Apr-23 04:55N 49°23' W 123°16'2 5.6
2018-Apr-23 04:30N 49°23' W 123°20'0 0.1
2018-Apr-23 03:59N 49°23' W 123°20'0 0.0
2018-Apr-23 03:30N 49°23' W 123°20'2 2.9
2018-Apr-23 02:40N 49°23' W 123°16'2 9.3
2018-Apr-23 02:30N 49°23' W 123°19'0 0.4
2018-Apr-23 02:00N 49°23' W 123°18'1 1.8
2018-Apr-23 01:30N 49°23' W 123°17'2 3.2
2018-Apr-23 01:00N 49°23' W 123°20'2 4.1
2018-Apr-23 00:30N 49°23' W 123°16'2 4.2
2018-Apr-22 23:57N 49°23' W 123°20'2 5.2
2018-Apr-22 23:30N 49°23' W 123°16'2 4.6
2018-Apr-22 23:00N 49°23' W 123°20'2 4.0
2018-Apr-22 22:25N 49°23' W 123°16'2 4.6
2018-Apr-22 22:00N 49°23' W 123°19'0 1.0
2018-Apr-22 21:30N 49°23' W 123°19'2 1.9
2018-Apr-22 20:43N 49°23' W 123°16'0 0.2
2018-Apr-22 20:30N 49°23' W 123°16'2 4.2
2018-Apr-22 19:57N 49°23' W 123°20'2 3.6
2018-Apr-22 19:17N 49°23' W 123°16'2 8.2
2018-Apr-22 19:00N 49°23' W 123°20'2 3.3
2018-Apr-22 18:30N 49°23' W 123°17'0 0.5
2018-Apr-22 18:00N 49°23' W 123°18'1 2.7
2018-Apr-22 17:30N 49°23' W 123°20'2 4.3
2018-Apr-22 17:00N 49°23' W 123°16'2 4.7
2018-Apr-22 16:30N 49°23' W 123°20'2 4.6
2018-Apr-22 16:00N 49°23' W 123°16'2 4.7
2018-Apr-22 15:30N 49°23' W 123°20'2 4.5
2018-Apr-22 15:00N 49°23' W 123°16'0 0.2
2018-Apr-22 14:30N 49°23' W 123°16'0 0.0
2018-Apr-22 14:00N 49°23' W 123°16'1 1.7
2018-Apr-22 13:30N 49°23' W 123°17'1 1.3
2018-Apr-22 13:00N 49°23' W 123°18'2 0.2
2018-Apr-22 05:53N 49°23' W 123°16'2 6.2
2018-Apr-22 05:30N 49°23' W 123°20'2 4.6
2018-Apr-22 05:00N 49°23' W 123°16'2 4.7
2018-Apr-22 04:30N 49°23' W 123°20'2 3.1
2018-Apr-22 03:45N 49°23' W 123°16'2 9.2
2018-Apr-22 03:30N 49°23' W 123°20'0 0.2
2018-Apr-22 03:00N 49°23' W 123°20'0 0.0
2018-Apr-22 02:30N 49°23' W 123°20'2 3.0
2018-Apr-22 02:00N 49°23' W 123°18'0 0.9
2018-Apr-22 01:31N 49°23' W 123°17'2 3.5
2018-Apr-22 01:00N 49°23' W 123°20'2 4.0
2018-Apr-22 00:27N 49°23' W 123°16'2 4.9
2018-Apr-21 23:58N 49°23' W 123°20'2 4.8
2018-Apr-21 23:29N 49°23' W 123°16'2 4.8
2018-Apr-21 23:00N 49°23' W 123°20'2 4.2
2018-Apr-21 22:27N 49°23' W 123°16'2 4.1
2018-Apr-21 22:00N 49°23' W 123°19'0 0.7
2018-Apr-21 21:30N 49°23' W 123°19'2 1.5
2018-Apr-21 20:26N 49°23' W 123°16'2 5.5
2018-Apr-21 20:00N 49°23' W 123°20'2 3.2
2018-Apr-21 19:16N 49°23' W 123°16'2 8.8
2018-Apr-21 19:00N 49°23' W 123°20'2 3.5
2018-Apr-21 18:30N 49°23' W 123°17'0 0.6
2018-Apr-21 18:00N 49°23' W 123°18'1 2.7
2018-Apr-21 17:30N 49°23' W 123°20'2 3.9
2018-Apr-21 16:58N 49°23' W 123°16'2 4.8
2018-Apr-21 16:30N 49°23' W 123°20'2 4.2
2018-Apr-21 15:57N 49°23' W 123°16'2 5.1
2018-Apr-21 15:30N 49°23' W 123°20'2 4.7
2018-Apr-21 15:00N 49°23' W 123°16'2 4.5
2018-Apr-21 14:31N 49°23' W 123°20'1 2.4
2018-Apr-21 14:00N 49°23' W 123°18'0 0.4
2018-Apr-21 13:30N 49°23' W 123°18'0 0.3
2018-Apr-21 13:00N 49°23' W 123°18'1 2.0
2018-Apr-21 12:25N 49°23' W 123°16'0 0.0
2018-Apr-21 11:56N 49°23' W 123°16'0 0.0
2018-Apr-21 11:30N 49°23' W 123°16'0 0.0
2018-Apr-21 06:23N 49°23' W 123°16'0 0.5
2018-Apr-21 06:00N 49°23' W 123°16'2 4.7
2018-Apr-21 05:30N 49°23' W 123°20'2 4.4
2018-Apr-21 04:58N 49°23' W 123°16'2 4.5
2018-Apr-21 04:30N 49°23' W 123°20'2 3.3
2018-Apr-21 04:00N 49°23' W 123°17'1 2.9
2018-Apr-21 03:30N 49°23' W 123°19'2 3.5
2018-Apr-21 02:58N 49°23' W 123°16'2 5.0
2018-Apr-21 02:30N 49°23' W 123°20'2 4.6
2018-Apr-21 02:00N 49°23' W 123°16'1 1.5
2018-Apr-21 01:30N 49°23' W 123°17'1 2.0
2018-Apr-21 01:00N 49°23' W 123°19'2 3.2
2018-Apr-21 00:30N 49°23' W 123°16'2 4.5
2018-Apr-20 23:59N 49°23' W 123°20'2 4.6
2018-Apr-20 23:29N 49°23' W 123°16'2 4.8
2018-Apr-20 23:00N 49°23' W 123°20'2 3.6
2018-Apr-20 22:21N 49°23' W 123°16'2 6.1
2018-Apr-20 22:00N 49°23' W 123°20'2 2.9
2018-Apr-20 21:29N 49°23' W 123°17'1 1.4
2018-Apr-20 20:53N 49°23' W 123°16'0 0.6
2018-Apr-20 20:27N 49°23' W 123°16'2 5.3
2018-Apr-20 20:00N 49°23' W 123°20'2 2.9
2018-Apr-20 19:15N 49°23' W 123°16'2 9.4
2018-Apr-20 19:00N 49°23' W 123°20'2 4.3
2018-Apr-20 18:30N 49°23' W 123°17'1 1.3
2018-Apr-20 18:00N 49°23' W 123°18'1 2.6
2018-Apr-20 17:30N 49°23' W 123°20'2 4.2
2018-Apr-20 16:59N 49°23' W 123°16'2 4.8
2018-Apr-20 16:30N 49°23' W 123°20'2 4.6
2018-Apr-20 16:00N 49°23' W 123°16'2 4.0
2018-Apr-20 15:26N 49°23' W 123°20'2 5.0
2018-Apr-20 14:58N 49°23' W 123°16'2 5.0
2018-Apr-20 14:30N 49°23' W 123°20'1 2.4
2018-Apr-20 14:00N 49°23' W 123°18'0 0.6
2018-Apr-20 13:30N 49°23' W 123°18'1 1.0
2018-Apr-20 13:00N 49°23' W 123°18'0 0.9
2018-Apr-20 12:30N 49°23' W 123°18'1 1.7
2018-Apr-20 12:00N 49°23' W 123°19'2 0.3
2018-Apr-20 05:47N 49°23' W 123°16'2 8.5
2018-Apr-20 05:30N 49°23' W 123°20'2 4.7
2018-Apr-20 05:00N 49°23' W 123°16'2 4.7
2018-Apr-20 04:30N 49°23' W 123°20'2 4.6
2018-Apr-20 04:00N 49°23' W 123°16'2 4.5
2018-Apr-20 03:30N 49°23' W 123°20'2 4.2
2018-Apr-20 02:59N 49°23' W 123°16'2 3.8
2018-Apr-20 02:30N 49°23' W 123°19'1 2.7
2018-Apr-20 02:00N 49°23' W 123°17'1 1.8
2018-Apr-20 01:30N 49°23' W 123°18'1 1.1
2018-Apr-20 01:00N 49°23' W 123°18'0 0.4
2018-Apr-20 00:29N 49°23' W 123°17'2 3.2
2018-Apr-20 00:00N 49°23' W 123°20'2 4.3
2018-Apr-19 23:30N 49°23' W 123°16'2 4.7
2018-Apr-19 23:00N 49°23' W 123°20'2 4.0
2018-Apr-19 22:26N 49°23' W 123°16'2 5.2
2018-Apr-19 22:00N 49°23' W 123°20'1 2.8
2018-Apr-19 21:30N 49°23' W 123°18'1 1.8
2018-Apr-19 20:54N 49°23' W 123°16'0 0.4
2018-Apr-19 20:27N 49°23' W 123°16'2 5.3
2018-Apr-19 20:00N 49°23' W 123°20'2 3.5
2018-Apr-19 19:20N 49°23' W 123°16'2 6.4
2018-Apr-19 18:58N 49°23' W 123°20'2 4.1
2018-Apr-19 18:24N 49°23' W 123°16'2 5.7
2018-Apr-19 18:00N 49°23' W 123°20'2 3.5
2018-Apr-19 17:30N 49°23' W 123°17'0 0.6
2018-Apr-19 17:00N 49°23' W 123°18'1 1.5
2018-Apr-19 16:27N 49°23' W 123°19'2 3.7
2018-Apr-19 16:00N 49°23' W 123°16'2 4.7
2018-Apr-19 15:30N 49°23' W 123°20'2 4.4
2018-Apr-19 14:59N 49°23' W 123°16'2 4.9
2018-Apr-19 14:30N 49°23' W 123°20'2 3.1
2018-Apr-19 14:00N 49°23' W 123°18'0 0.5
2018-Apr-19 13:30N 49°23' W 123°18'0 0.6
2018-Apr-19 13:00N 49°23' W 123°18'0 1.0
2018-Apr-19 12:30N 49°23' W 123°18'1 2.5
2018-Apr-19 12:00N 49°23' W 123°20'2 0.4
2018-Apr-19 06:20N 49°23' W 123°16'0 0.2
2018-Apr-19 05:46N 49°23' W 123°16'2 8.3
2018-Apr-19 05:30N 49°23' W 123°20'2 3.1
2018-Apr-19 04:46N 49°23' W 123°16'2 8.4
2018-Apr-19 04:29N 49°23' W 123°20'2 3.1
2018-Apr-19 03:45N 49°23' W 123°16'2 8.9
2018-Apr-19 03:29N 49°23' W 123°20'2 4.5
2018-Apr-19 02:58N 49°23' W 123°16'2 3.8
2018-Apr-19 02:30N 49°23' W 123°19'2 3.0
2018-Apr-19 02:00N 49°23' W 123°17'2 3.0
2018-Apr-19 01:30N 49°23' W 123°19'1 2.1
2018-Apr-19 01:00N 49°23' W 123°17'0 0.1
2018-Apr-19 00:30N 49°23' W 123°17'1 3.1
2018-Apr-19 00:00N 49°23' W 123°20'2 4.3
2018-Apr-18 23:30N 49°23' W 123°16'2 4.4
2018-Apr-18 22:58N 49°23' W 123°20'2 5.0
2018-Apr-18 22:30N 49°23' W 123°16'2 4.5
2018-Apr-18 22:00N 49°23' W 123°20'1 2.4
2018-Apr-18 21:29N 49°23' W 123°18'1 1.2
2018-Apr-18 20:30N 49°23' W 123°16'2 4.7
2018-Apr-18 20:00N 49°23' W 123°20'2 3.1
2018-Apr-18 19:15N 49°23' W 123°16'2 9.0
2018-Apr-18 19:00N 49°23' W 123°20'2 3.8
2018-Apr-18 18:29N 49°23' W 123°17'1 2.0
2018-Apr-18 18:00N 49°23' W 123°18'0 0.5
2018-Apr-18 17:30N 49°23' W 123°19'1 2.8
2018-Apr-18 17:00N 49°23' W 123°16'2 4.5
2018-Apr-18 16:30N 49°23' W 123°20'2 4.5
2018-Apr-18 16:00N 49°23' W 123°16'2 4.6
2018-Apr-18 15:30N 49°23' W 123°20'2 3.5
2018-Apr-18 14:50N 49°23' W 123°16'2 7.0
2018-Apr-18 14:30N 49°23' W 123°20'2 3.1
2018-Apr-18 14:00N 49°23' W 123°18'0 0.3
2018-Apr-18 13:30N 49°23' W 123°18'1 1.3
2018-Apr-18 13:00N 49°23' W 123°19'1 1.6
2018-Apr-18 12:30N 49°23' W 123°17'2 3.1
2018-Apr-18 12:00N 49°23' W 123°20'2 0.4
2018-Apr-18 05:45N 49°23' W 123°16'2 8.8
2018-Apr-18 05:30N 49°23' W 123°20'2 3.0
2018-Apr-18 04:46N 49°23' W 123°16'2 8.9
2018-Apr-18 04:30N 49°23' W 123°20'2 4.6
2018-Apr-18 04:00N 49°23' W 123°16'2 4.5
2018-Apr-18 03:30N 49°23' W 123°20'2 4.4
2018-Apr-18 03:00N 49°23' W 123°16'2 3.2
2018-Apr-18 02:30N 49°23' W 123°19'0 0.4
2018-Apr-18 02:00N 49°23' W 123°19'1 2.8
2018-Apr-18 01:30N 49°23' W 123°16'2 4.4
2018-Apr-18 01:01N 49°23' W 123°20'2 3.7
2018-Apr-18 00:25N 49°23' W 123°16'2 5.5
2018-Apr-18 00:00N 49°23' W 123°20'2 4.7
2018-Apr-17 23:31N 49°23' W 123°16'2 4.6
2018-Apr-17 23:00N 49°23' W 123°20'2 4.5
2018-Apr-17 22:29N 49°23' W 123°16'2 3.9
2018-Apr-17 22:00N 49°23' W 123°19'1 1.1
2018-Apr-17 21:31N 49°23' W 123°18'1 2.7
2018-Apr-17 20:57N 49°23' W 123°16'0 0.4
2018-Apr-17 20:28N 49°23' W 123°16'2 5.2
2018-Apr-17 20:00N 49°23' W 123°20'2 3.3
2018-Apr-17 19:17N 49°23' W 123°16'2 8.1
2018-Apr-17 19:00N 49°23' W 123°20'2 4.5
2018-Apr-17 18:30N 49°23' W 123°16'1 1.5
2018-Apr-17 18:01N 49°23' W 123°17'1 2.9
2018-Apr-17 17:30N 49°23' W 123°20'2 4.2
2018-Apr-17 17:00N 49°23' W 123°16'2 4.7
2018-Apr-17 16:30N 49°23' W 123°20'2 4.4
2018-Apr-17 15:59N 49°23' W 123°16'2 4.9
2018-Apr-17 15:31N 49°23' W 123°20'2 4.5
2018-Apr-17 15:00N 49°23' W 123°16'2 4.7
2018-Apr-17 14:30N 49°23' W 123°20'1 2.8
2018-Apr-17 14:00N 49°23' W 123°18'0 0.3
2018-Apr-17 13:30N 49°23' W 123°18'0 1.0
2018-Apr-17 13:00N 49°23' W 123°19'1 1.6
2018-Apr-17 12:31N 49°23' W 123°17'2 3.2
2018-Apr-17 12:01N 49°23' W 123°20'2 0.4
2018-Apr-17 06:08N 49°23' W 123°16'0 0.4
2018-Apr-17 05:47N 49°23' W 123°16'2 8.5
2018-Apr-17 05:30N 49°23' W 123°20'2 3.8
2018-Apr-17 04:55N 49°23' W 123°16'2 5.6
2018-Apr-17 04:30N 49°23' W 123°20'2 4.6
2018-Apr-17 04:00N 49°23' W 123°16'2 4.5
2018-Apr-17 03:30N 49°23' W 123°20'2 4.5
2018-Apr-17 03:01N 49°23' W 123°16'1 2.9
2018-Apr-17 02:30N 49°23' W 123°19'0 0.3
2018-Apr-17 02:00N 49°23' W 123°19'2 3.2
2018-Apr-17 01:30N 49°23' W 123°16'2 4.5
2018-Apr-17 01:00N 49°23' W 123°20'2 4.3
2018-Apr-17 00:29N 49°23' W 123°16'2 4.8
2018-Apr-17 00:00N 49°23' W 123°20'2 4.0
2018-Apr-16 23:25N 49°23' W 123°16'2 5.5
2018-Apr-16 23:00N 49°23' W 123°20'2 3.7
2018-Apr-16 22:22N 49°23' W 123°16'2 4.4
2018-Apr-16 22:00N 49°23' W 123°19'0 0.3
2018-Apr-16 21:31N 49°23' W 123°19'2 3.3
2018-Apr-16 21:00N 49°23' W 123°16'0 0.3
2018-Apr-16 20:27N 49°23' W 123°16'2 5.0
2018-Apr-16 19:59N 49°23' W 123°20'2 3.0
2018-Apr-16 19:14N 49°23' W 123°16'2 9.2
2018-Apr-16 19:00N 49°23' W 123°20'2 3.5
2018-Apr-16 18:30N 49°23' W 123°17'0 0.8
2018-Apr-16 17:59N 49°23' W 123°18'1 2.1
2018-Apr-16 17:29N 49°23' W 123°19'2 3.7
2018-Apr-16 16:57N 49°23' W 123°16'2 5.2
2018-Apr-16 16:30N 49°23' W 123°20'2 4.5
2018-Apr-16 16:00N 49°23' W 123°16'2 4.7
2018-Apr-16 15:30N 49°23' W 123°20'2 4.2
2018-Apr-16 14:57N 49°23' W 123°16'2 5.2
2018-Apr-16 14:30N 49°23' W 123°20'1 2.6
2018-Apr-16 14:00N 49°23' W 123°18'0 0.2
2018-Apr-16 13:30N 49°23' W 123°18'1 1.1
2018-Apr-16 13:00N 49°23' W 123°19'1 1.6
2018-Apr-16 12:30N 49°23' W 123°17'1 3.0
2018-Apr-16 12:00N 49°23' W 123°20'2 0.4
2018-Apr-16 05:47N 49°23' W 123°16'2 8.5
2018-Apr-16 05:30N 49°23' W 123°20'2 4.7
2018-Apr-16 05:00N 49°23' W 123°16'2 4.5
2018-Apr-16 04:30N 49°23' W 123°20'0 0.1
2018-Apr-16 04:00N 49°23' W 123°20'0 0.0
2018-Apr-16 03:31N 49°23' W 123°20'2 4.6
2018-Apr-16 03:00N 49°23' W 123°16'2 3.3
2018-Apr-16 02:30N 49°23' W 123°19'0 0.2
2018-Apr-16 02:01N 49°23' W 123°19'2 3.2
2018-Apr-16 01:30N 49°23' W 123°16'2 4.5
2018-Apr-16 01:00N 49°23' W 123°20'2 3.9
2018-Apr-16 00:26N 49°23' W 123°16'2 5.4
2018-Apr-16 00:00N 49°23' W 123°20'2 4.2
2018-Apr-15 23:27N 49°23' W 123°16'2 5.2
2018-Apr-15 23:01N 49°23' W 123°20'2 4.2
2018-Apr-15 22:28N 49°23' W 123°16'2 3.3
2018-Apr-15 22:00N 49°23' W 123°19'0 0.3
2018-Apr-15 21:30N 49°23' W 123°19'2 3.0
2018-Apr-15 20:56N 49°23' W 123°16'0 0.4
2018-Apr-15 20:28N 49°23' W 123°16'2 5.1
2018-Apr-15 20:01N 49°23' W 123°20'2 3.2
2018-Apr-15 19:16N 49°23' W 123°16'2 8.6
2018-Apr-15 19:00N 49°23' W 123°20'2 3.1
2018-Apr-15 18:30N 49°23' W 123°17'0 0.9
2018-Apr-15 17:59N 49°23' W 123°18'1 2.2
2018-Apr-15 17:31N 49°23' W 123°20'2 4.4
2018-Apr-15 17:01N 49°23' W 123°16'2 4.6
2018-Apr-15 16:30N 49°23' W 123°20'2 4.4
2018-Apr-15 15:59N 49°23' W 123°16'2 4.5
2018-Apr-15 15:28N 49°23' W 123°20'2 5.0
2018-Apr-15 15:00N 49°23' W 123°16'0 0.2
2018-Apr-15 14:25N 49°23' W 123°16'0 0.0
2018-Apr-15 13:59N 49°23' W 123°16'1 2.0
2018-Apr-15 13:30N 49°23' W 123°18'0 0.8
2018-Apr-15 13:00N 49°23' W 123°18'1 0.2
2018-Apr-15 05:47N 49°23' W 123°16'2 8.5
2018-Apr-15 05:31N 49°23' W 123°20'2 4.2
2018-Apr-15 04:57N 49°23' W 123°16'2 5.1
2018-Apr-15 04:30N 49°23' W 123°20'2 3.1
2018-Apr-15 03:46N 49°23' W 123°16'2 8.7
2018-Apr-15 03:30N 49°23' W 123°20'0 0.0
2018-Apr-15 02:59N 49°23' W 123°20'0 0.0
2018-Apr-15 02:30N 49°23' W 123°20'1 2.0
2018-Apr-15 02:00N 49°23' W 123°18'1 2.7
2018-Apr-15 01:31N 49°23' W 123°16'2 3.9
2018-Apr-15 01:00N 49°23' W 123°19'2 3.6
2018-Apr-15 00:26N 49°23' W 123°16'2 5.6
2018-Apr-15 00:00N 49°23' W 123°20'2 4.4
2018-Apr-14 23:29N 49°23' W 123°16'2 4.8
2018-Apr-14 23:00N 49°23' W 123°20'2 4.4
2018-Apr-14 22:29N 49°23' W 123°16'  

Dump ship's entire track history